| time (UTC) | temp F | wind direction | speed knots | gust knots | rain 1hr in | rain 24hr in | rain mn in | humidity % | barometer mb |
| 20260906070026 | 77 | 40 | 5.2 | 13.0 | 0.00 | 0.00 | 0.00 | 82 | 1015.5 |
| 20260906065513 | 77 | 34 | 5.2 | 13.0 | 0.00 | 0.00 | 0.00 | 82 | 1015.6 |
| 20260906065020 | 76 | 9 | 7.0 | 13.0 | 0.00 | 0.00 | 0.00 | 84 | 1015.6 |
| 20260906064534 | 76 | 32 | 7.0 | 10.4 | 0.00 | 0.00 | 0.00 | 85 | 1015.4 |
| 20260906064018 | 76 | 360 | 5.2 | 8.7 | 0.00 | 0.00 | 0.00 | 85 | 1015.4 |
| 20260906063514 | 75 | 5 | 2.6 | 3.5 | 0.00 | 0.00 | 0.00 | 85 | 1015.4 |
| 20260906063034 | 75 | 5 | 0.0 | 1.7 | 0.00 | 0.00 | 0.00 | 85 | 1014.8 |
| 20260906062518 | 75 | 24 | 0.9 | 1.7 | 0.00 | 0.00 | 0.00 | 86 | 1014.5 |
| 20260906062016 | 75 | 51 | 0.0 | 1.7 | 0.00 | 0.00 | 0.00 | 86 | 1014.5 |
| 20260906061515 | 75 | 51 | 0.9 | 1.7 | 0.00 | 0.00 | 0.00 | 87 | 1014.5 |
| 20260906061011 | 75 | 263 | 1.7 | 3.5 | 0.00 | 0.00 | 0.00 | 87 | 1014.4 |
| 20260906060519 | 75 | 191 | 0.9 | 3.5 | 0.00 | 0.00 | 0.00 | 87 | 1014.5 |
| 20260906060023 | 74 | 63 | 1.7 | 6.1 | 0.00 | 0.00 | 0.00 | 88 | 1014.4 |
| 20260906055511 | 74 | 109 | 1.7 | 6.1 | 0.00 | 0.00 | 0.00 | 89 | 1014.2 |
| 20260906055010 | 74 | 103 | 3.5 | 6.1 | 0.00 | 0.00 | 0.00 | 90 | 1014.4 |
| 20260906054526 | 74 | 161 | 0.0 | 1.7 | 0.00 | 0.00 | 0.00 | 89 | 1014.0 |
| 20260906054018 | 74 | 161 | 0.0 | 1.7 | 0.00 | 0.00 | 0.00 | 88 | 1013.7 |
| 20260906053514 | 74 | 161 | 0.0 | 1.7 | 0.00 | 0.00 | 0.00 | 88 | 1013.5 |
| 20260906053030 | 74 | 161 | 0.0 | 1.7 | 0.00 | 0.00 | 0.00 | 88 | 1013.5 |
| 20260906052519 | 74 | 161 | 0.0 | 1.7 | 0.00 | 0.00 | 0.00 | 88 | 1013.5 |
| 20260906052019 | 74 | 161 | 0.0 | 1.7 | 0.00 | 0.00 | 0.00 | 88 | 1013.4 |
| 20260906051514 | 74 | 161 | 0.0 | 1.7 | 0.00 | 0.00 | 0.00 | 88 | 1013.4 |
| 20260906051006 | 74 | 161 | 0.0 | 1.7 | 0.00 | 0.00 | 0.00 | 88 | 1013.4 |
| 20260906050505 | 74 | 161 | 0.0 | 0.0 | 0.00 | 0.00 | 0.00 | 87 | 1013.5 |
| 20260906050018 | 74 | 161 | 0.0 | 0.0 | 0.00 | 0.00 | 0.00 | 87 | 1013.5 |
| 20260906045521 | 74 | 161 | 0.0 | 0.0 | 0.00 | 0.00 | 0.00 | 86 | 1013.5 |
| 20260906045010 | 75 | 161 | 0.0 | 1.7 | 0.00 | 0.00 | 0.00 | 86 | 1013.6 |
| 20260906044526 | 75 | 161 | 0.0 | 1.7 | 0.00 | 0.00 | 0.00 | 87 | 1013.8 |
| 20260906044003 | 75 | 243 | 0.9 | 1.7 | 0.00 | 0.00 | 0.00 | 86 | 1014.0 |
| 20260906043503 | 75 | 38 | 0.0 | 0.0 | 0.00 | 0.00 | 0.00 | 86 | 1014.0 |
| 20260906043027 | 75 | 38 | 0.0 | 1.7 | 0.00 | 0.00 | 0.00 | 86 | 1014.0 |
| 20260906042502 | 75 | 38 | 0.0 | 1.7 | 0.00 | 0.00 | 0.00 | 86 | 1014.0 |
| 20260906042004 | 75 | 38 | 0.9 | 1.7 | 0.00 | 0.00 | 0.00 | 86 | 1014.0 |
| 20260906041516 | 75 | 38 | 0.9 | 1.7 | 0.00 | 0.00 | 0.00 | 86 | 1014.1 |
| 20260906041005 | 75 | 73 | 0.0 | 1.7 | 0.00 | 0.00 | 0.00 | 86 | 1014.0 |
| 20260906040507 | 75 | 73 | 0.9 | 1.7 | 0.00 | 0.00 | 0.00 | 86 | 1014.0 |
| 20260906040037 | 75 | 360 | 0.0 | 1.7 | 0.00 | 0.00 | 0.00 | 85 | 1014.0 |
| 20260906035508 | 75 | 360 | 0.0 | 1.7 | 0.00 | 0.00 | 0.00 | 85 | 1014.0 |
| 20260906035013 | 75 | 360 | 0.0 | 0.9 | 0.00 | 0.00 | 0.00 | 85 | 1014.0 |
| 20260906034526 | 75 | 360 | 0.0 | 1.7 | 0.00 | 0.00 | 0.00 | 85 | 1014.1 |
| 20260906034011 | 75 | 37 | 0.0 | 1.7 | 0.00 | 0.00 | 0.00 | 85 | 1014.1 |
| 20260906033502 | 75 | 37 | 0.0 | 1.7 | 0.00 | 0.00 | 0.00 | 85 | 1014.0 |
| 20260906033003 | 75 | 360 | 0.9 | 1.7 | 0.00 | 0.00 | 0.00 | 84 | 1014.0 |
| 20260906032516 | 75 | 130 | 0.0 | 1.7 | 0.00 | 0.00 | 0.00 | 84 | 1014.0 |
| 20260906032004 | 76 | 130 | 0.0 | 1.7 | 0.00 | 0.00 | 0.00 | 83 | 1013.9 |
| 20260906031508 | 76 | 130 | 0.0 | 1.7 | 0.00 | 0.00 | 0.00 | 84 | 1013.9 |
| 20260906031004 | 76 | 130 | 0.0 | 1.7 | 0.00 | 0.00 | 0.00 | 84 | 1013.9 |
| 20260906030507 | 76 | 72 | 0.0 | 1.7 | 0.00 | 0.00 | 0.00 | 83 | 1013.9 |
| 20260906030012 | 76 | 92 | 0.0 | 1.7 | 0.00 | 0.00 | 0.00 | 83 | 1013.8 |
| 20260906025506 | 76 | 140 | 0.0 | 1.7 | 0.00 | 0.00 | 0.00 | 82 | 1013.8 |
| 20260906025008 | 76 | 140 | 0.0 | 1.7 | 0.00 | 0.00 | 0.00 | 82 | 1013.8 |
| 20260906024538 | 76 | 140 | 0.9 | 1.7 | 0.00 | 0.00 | 0.00 | 82 | 1013.8 |
| 20260906024018 | 76 | 140 | 0.9 | 1.7 | 0.00 | 0.00 | 0.00 | 82 | 1013.7 |
| 20260906023516 | 77 | 89 | 0.0 | 1.7 | 0.00 | 0.00 | 0.00 | 81 | 1013.6 |
| 20260906023026 | 77 | 89 | 0.0 | 1.7 | 0.00 | 0.00 | 0.00 | 80 | 1013.6 |
| 20260906022503 | 77 | 89 | 0.0 | 1.7 | 0.00 | 0.00 | 0.00 | 80 | 1013.5 |
| 20260906022003 | 77 | 89 | 0.0 | 1.7 | 0.00 | 0.00 | 0.00 | 79 | 1013.4 |
| 20260906021517 | 77 | 89 | 0.0 | 1.7 | 0.00 | 0.00 | 0.00 | 79 | 1013.2 |
| 20260906021004 | 78 | 5 | 0.9 | 1.7 | 0.00 | 0.00 | 0.00 | 78 | 1013.1 |
| 20260906020504 | 78 | 5 | 0.9 | 1.7 | 0.00 | 0.00 | 0.00 | 77 | 1013.1 |
| 20260906020032 | 79 | 316 | 0.0 | 1.7 | 0.00 | 0.00 | 0.00 | 76 | 1012.9 |
| 20260906015504 | 79 | 316 | 0.0 | 1.7 | 0.00 | 0.00 | 0.00 | 75 | 1012.9 |
| 20260906015015 | 79 | 316 | 0.0 | 1.7 | 0.00 | 0.00 | 0.00 | 75 | 1012.9 |
| 20260906014534 | 79 | 316 | 0.0 | 1.7 | 0.00 | 0.00 | 0.00 | 74 | 1012.9 |
| 20260906014017 | 79 | 42 | 0.0 | 1.7 | 0.00 | 0.00 | 0.00 | 74 | 1012.7 |
| 20260906013511 | 79 | 42 | 0.9 | 1.7 | 0.00 | 0.00 | 0.00 | 73 | 1012.8 |
| 20260906013038 | 80 | 298 | 0.0 | 1.7 | 0.00 | 0.00 | 0.00 | 73 | 1012.8 |
| 20260906012522 | 80 | 298 | 0.9 | 2.6 | 0.00 | 0.00 | 0.00 | 73 | 1012.8 |
| 20260906012014 | 80 | 206 | 1.7 | 2.6 | 0.00 | 0.00 | 0.00 | 73 | 1012.8 |
| 20260906011535 | 80 | 43 | 0.9 | 2.6 | 0.00 | 0.00 | 0.00 | 71 | 1012.7 |
| 20260906011003 | 81 | 342 | 1.7 | 2.6 | 0.00 | 0.00 | 0.00 | 70 | 1012.5 |
| 20260906010518 | 81 | 352 | 1.7 | 2.6 | 0.00 | 0.00 | 0.00 | 70 | 1012.7 |
| 20260906010011 | 81 | 17 | 0.9 | 1.7 | 0.00 | 0.00 | 0.00 | 70 | 1012.7 |
| 20260906005505 | 81 | 49 | 0.9 | 1.7 | 0.00 | 0.00 | 0.00 | 69 | 1012.6 |
| 20260906005016 | 82 | 50 | 1.7 | 1.7 | 0.00 | 0.00 | 0.00 | 68 | 1012.6 |
| 20260906004534 | 82 | 40 | 0.9 | 1.7 | 0.00 | 0.00 | 0.00 | 67 | 1012.6 |
| 20260906004017 | 83 | 75 | 0.9 | 1.7 | 0.00 | 0.00 | 0.00 | 65 | 1012.6 |
| 20260906003520 | 83 | 179 | 0.0 | 2.6 | 0.00 | 0.00 | 0.00 | 65 | 1012.5 |
| 20260906003018 | 84 | 179 | 0.9 | 2.6 | 0.00 | 0.00 | 0.00 | 64 | 1012.6 |
| 20260906002510 | 84 | 166 | 0.0 | 1.7 | 0.00 | 0.00 | 0.00 | 63 | 1012.5 |
| 20260906002019 | 84 | 166 | 0.9 | 2.6 | 0.00 | 0.00 | 0.00 | 63 | 1012.5 |
| 20260906001534 | 85 | 144 | 0.9 | 2.6 | 0.00 | 0.00 | 0.00 | 61 | 1012.5 |
| 20260906001011 | 85 | 93 | 0.9 | 5.2 | 0.00 | 0.00 | 0.00 | 60 | 1012.6 |
| 20260906000516 | 85 | 94 | 0.9 | 5.2 | 0.00 | 0.00 | 0.00 | 60 | 1012.7 |
| 20260906000005 | 86 | 93 | 1.7 | 6.1 | 0.00 | 0.00 | 0.00 | 59 | 1012.7 |
| 20260905235503 | 86 | 92 | 1.7 | 6.1 | 0.00 | 0.00 | 0.00 | 59 | 1012.7 |
| 20260905235004 | 86 | 73 | 1.7 | 3.5 | 0.00 | 0.00 | 0.00 | 61 | 1012.7 |
| 20260905234523 | 87 | 41 | 0.9 | 2.6 | 0.00 | 0.00 | 0.00 | 61 | 1012.6 |
| 20260905234007 | 87 | 61 | 0.0 | 3.5 | 0.00 | 0.00 | 0.00 | 60 | 1012.6 |
| 20260905233507 | 87 | 40 | 1.7 | 7.0 | 0.00 | 0.00 | 0.00 | 58 | 1012.5 |
| 20260905233025 | 88 | 62 | 1.7 | 7.0 | 0.00 | 0.00 | 0.00 | 57 | 1012.5 |
| 20260905232507 | 89 | 82 | 3.5 | 9.6 | 0.00 | 0.00 | 0.00 | 56 | 1012.5 |
| 20260905232020 | 90 | 17 | 2.6 | 9.6 | 0.00 | 0.00 | 0.00 | 54 | 1012.5 |
| 20260905231527 | 92 | 46 | 3.5 | 9.6 | 0.00 | 0.00 | 0.00 | 49 | 1012.7 |
| 20260905231012 | 94 | 130 | 3.5 | 8.7 | 0.00 | 0.00 | 0.00 | 49 | 1012.4 |
| 20260905230511 | 95 | 44 | 1.7 | 8.7 | 0.00 | 0.00 | 0.00 | 51 | 1012.3 |
| 20260905230031 | 95 | 346 | 4.3 | 8.7 | 0.00 | 0.00 | 0.00 | 50 | 1012.3 |
| 20260905225519 | 95 | 345 | 3.5 | 7.8 | 0.00 | 0.00 | 0.00 | 49 | 1012.2 |
| 20260905225014 | 95 | 9 | 5.2 | 7.8 | 0.00 | 0.00 | 0.00 | 49 | 1012.0 |
| 20260905224508 | 96 | 316 | 4.3 | 7.8 | 0.00 | 0.00 | 0.00 | 48 | 1012.1 |
| 20260905224007 | 96 | 329 | 4.3 | 8.7 | 0.00 | 0.00 | 0.00 | 48 | 1012.1 |
| 20260905223506 | 97 | 352 | 6.1 | 8.7 | 0.00 | 0.00 | 0.00 | 47 | 1012.2 |
| 20260905223019 | 97 | 343 | 3.5 | 7.8 | 0.00 | 0.00 | 0.00 | 48 | 1012.1 |
| 20260905222519 | 97 | 335 | 5.2 | 7.8 | 0.00 | 0.00 | 0.00 | 47 | 1012.1 |
| 20260905222022 | 98 | 336 | 4.3 | 7.0 | 0.00 | 0.00 | 0.00 | 46 | 1012.1 |
| 20260905221553 | 98 | 48 | 1.7 | 7.0 | 0.00 | 0.00 | 0.00 | 47 | 1012.1 |
| 20260905221021 | 98 | 336 | 3.5 | 8.7 | 0.00 | 0.00 | 0.00 | 46 | 1012.1 |
| 20260905220511 | 98 | 360 | 2.6 | 8.7 | 0.00 | 0.00 | 0.00 | 46 | 1012.1 |
| 20260905220039 | 98 | 273 | 5.2 | 7.8 | 0.00 | 0.00 | 0.00 | 44 | 1012.2 |
| 20260905215520 | 98 | 306 | 2.6 | 5.2 | 0.00 | 0.00 | 0.00 | 44 | 1012.2 |
| 20260905215014 | 98 | 329 | 1.7 | 5.2 | 0.00 | 0.00 | 0.00 | 46 | 1012.2 |
| 20260905214534 | 98 | 5 | 2.6 | 4.3 | 0.00 | 0.00 | 0.00 | 45 | 1012.2 |
| 20260905214014 | 98 | 352 | 1.7 | 5.2 | 0.00 | 0.00 | 0.00 | 46 | 1012.3 |
| 20260905213525 | 98 | 292 | 3.5 | 5.2 | 0.00 | 0.00 | 0.00 | 46 | 1012.3 |
| 20260905213011 | 98 | 325 | 0.9 | 4.3 | 0.00 | 0.00 | 0.00 | 46 | 1012.3 |
| 20260905212516 | 98 | 318 | 0.9 | 2.6 | 0.00 | 0.00 | 0.00 | 47 | 1012.3 |
| 20260905212008 | 97 | 112 | 0.9 | 1.7 | 0.00 | 0.00 | 0.00 | 53 | 1012.3 |
| 20260905211533 | 96 | 160 | 0.0 | 1.7 | 0.00 | 0.00 | 0.00 | 50 | 1012.4 |
| 20260905211018 | 95 | 330 | 0.0 | 1.7 | 0.00 | 0.00 | 0.00 | 50 | 1012.4 |
| 20260905210518 | 96 | 344 | 0.9 | 3.5 | 0.00 | 0.00 | 0.00 | 50 | 1012.4 |
| 20260905210029 | 97 | 29 | 0.0 | 6.1 | 0.00 | 0.00 | 0.00 | 47 | 1012.4 |
| 20260905205516 | 98 | 49 | 2.6 | 6.1 | 0.00 | 0.00 | 0.00 | 47 | 1012.4 |
| 20260905205012 | 98 | 9 | 2.6 | 7.8 | 0.00 | 0.00 | 0.00 | 46 | 1012.3 |
| 20260905204535 | 98 | 360 | 4.3 | 7.8 | 0.00 | 0.00 | 0.00 | 46 | 1012.4 |
| 20260905204018 | 98 | 123 | 1.7 | 3.5 | 0.00 | 0.00 | 0.00 | 46 | 1012.4 |
| 20260905203516 | 98 | 289 | 0.0 | 3.5 | 0.00 | 0.00 | 0.00 | 45 | 1012.5 |
| 20260905203037 | 97 | 219 | 1.7 | 3.5 | 0.00 | 0.00 | 0.00 | 47 | 1012.5 |
| 20260905202515 | 97 | 284 | 1.7 | 5.2 | 0.00 | 0.00 | 0.00 | 47 | 1012.8 |
| 20260905202007 | 97 | 49 | 1.7 | 5.2 | 0.00 | 0.00 | 0.00 | 46 | 1012.8 |
| 20260905201504 | 98 | 47 | 3.5 | 5.2 | 0.00 | 0.00 | 0.00 | 46 | 1013.0 |
| 20260905201002 | 99 | 348 | 1.7 | 5.2 | 0.00 | 0.00 | 0.00 | 45 | 1012.9 |
| 20260905200503 | 99 | 327 | 3.5 | 5.2 | 0.00 | 0.00 | 0.00 | 45 | 1013.0 |
| 20260905200006 | 99 | 26 | 1.7 | 4.3 | 0.00 | 0.00 | 0.00 | 46 | 1013.1 |
| 20260905195503 | 99 | 293 | 0.9 | 4.3 | 0.00 | 0.00 | 0.00 | 47 | 1013.2 |
| 20260905195006 | 98 | 313 | 2.6 | 3.5 | 0.00 | 0.00 | 0.00 | 46 | 1013.4 |
| 20260905194504 | 98 | 118 | 0.9 | 4.3 | 0.00 | 0.00 | 0.00 | 47 | 1013.5 |
| 20260905194003 | 97 | 57 | 1.7 | 4.3 | 0.00 | 0.00 | 0.00 | 47 | 1013.6 |
| 20260905193502 | 97 | 360 | 3.5 | 4.3 | 0.00 | 0.00 | 0.00 | 49 | 1013.6 |
| 20260905193005 | 97 | 57 | 0.0 | 7.0 | 0.00 | 0.00 | 0.00 | 48 | 1013.5 |
| 20260905192502 | 98 | 194 | 0.9 | 7.0 | 0.00 | 0.00 | 0.00 | 47 | 1013.6 |
| 20260905192003 | 98 | 343 | 1.7 | 5.2 | 0.00 | 0.00 | 0.00 | 49 | 1013.6 |
| 20260905191504 | 98 | 69 | 1.7 | 7.0 | 0.00 | 0.00 | 0.00 | 50 | 1013.7 |
| 20260905191005 | 98 | 73 | 3.5 | 8.7 | 0.00 | 0.00 | 0.00 | 49 | 1013.8 |
| 20260905190503 | 98 | 41 | 3.5 | 8.7 | 0.00 | 0.00 | 0.00 | 49 | 1013.9 |
| 20260905190006 | 98 | 328 | 2.6 | 7.8 | 0.00 | 0.00 | 0.00 | 49 | 1013.9 |
| 20260905185504 | 97 | 57 | 2.6 | 7.8 | 0.00 | 0.00 | 0.00 | 50 | 1014.0 |
| 20260905185003 | 98 | 24 | 3.5 | 5.2 | 0.00 | 0.00 | 0.00 | 48 | 1014.1 |
| 20260905184505 | 97 | 329 | 2.6 | 4.3 | 0.00 | 0.00 | 0.00 | 48 | 1014.1 |
| 20260905184003 | 97 | 306 | 0.9 | 7.0 | 0.00 | 0.00 | 0.00 | 49 | 1014.2 |
| 20260905183503 | 97 | 43 | 3.5 | 7.0 | 0.00 | 0.00 | 0.00 | 49 | 1014.3 |
| 20260905183004 | 97 | 9 | 2.6 | 7.8 | 0.00 | 0.00 | 0.00 | 46 | 1014.4 |
| 20260905182504 | 97 | 11 | 1.7 | 7.8 | 0.00 | 0.00 | 0.00 | 51 | 1014.5 |
| 20260905182003 | 97 | 68 | 1.7 | 5.2 | 0.00 | 0.00 | 0.00 | 49 | 1014.5 |
| 20260905181505 | 97 | 17 | 2.6 | 8.7 | 0.00 | 0.00 | 0.00 | 49 | 1014.6 |
| 20260905181003 | 96 | 243 | 1.7 | 10.4 | 0.00 | 0.00 | 0.00 | 49 | 1014.6 |
| 20260905180505 | 96 | 348 | 2.6 | 10.4 | 0.00 | 0.00 | 0.00 | 51 | 1014.7 |
| 20260905180004 | 96 | 50 | 2.6 | 6.1 | 0.00 | 0.00 | 0.00 | 51 | 1014.7 |
| 20260905175506 | 96 | 9 | 1.7 | 7.0 | 0.00 | 0.00 | 0.00 | 52 | 1014.7 |
| 20260905175003 | 95 | 156 | 1.7 | 7.0 | 0.00 | 0.00 | 0.00 | 55 | 1014.7 |
| 20260905174503 | 95 | 59 | 3.5 | 6.1 | 0.00 | 0.00 | 0.00 | 54 | 1014.8 |
| 20260905174003 | 95 | 326 | 2.6 | 8.7 | 0.00 | 0.00 | 0.00 | 54 | 1014.8 |
| 20260905173503 | 95 | 319 | 4.3 | 8.7 | 0.00 | 0.00 | 0.00 | 53 | 1014.9 |
| 20260905173005 | 95 | 301 | 3.5 | 7.0 | 0.00 | 0.00 | 0.00 | 54 | 1014.9 |
| 20260905172502 | 95 | 32 | 2.6 | 7.0 | 0.00 | 0.00 | 0.00 | 54 | 1014.9 |
| 20260905172002 | 95 | 352 | 1.7 | 8.7 | 0.00 | 0.00 | 0.00 | 53 | 1015.1 |
| 20260905171504 | 95 | 345 | 6.1 | 8.7 | 0.00 | 0.00 | 0.00 | 54 | 1015.1 |
| 20260905171003 | 95 | 266 | 3.5 | 7.8 | 0.00 | 0.00 | 0.00 | 55 | 1015.0 |
| 20260905170503 | 95 | 317 | 1.7 | 6.1 | 0.00 | 0.00 | 0.00 | 57 | 1015.1 |
| 20260905170006 | 95 | 326 | 0.9 | 4.3 | 0.00 | 0.00 | 0.00 | 55 | 1015.2 |
| 20260905165503 | 94 | 11 | 3.5 | 7.0 | 0.00 | 0.00 | 0.00 | 56 | 1015.2 |
| 20260905165003 | 94 | 297 | 4.3 | 7.0 | 0.00 | 0.00 | 0.00 | 57 | 1015.3 |
| 20260905164505 | 94 | 257 | 1.7 | 5.2 | 0.00 | 0.00 | 0.00 | 54 | 1015.4 |
| 20260905164006 | 93 | 285 | 2.6 | 7.8 | 0.00 | 0.00 | 0.00 | 56 | 1015.4 |
| 20260905163503 | 93 | 337 | 4.3 | 7.0 | 0.00 | 0.00 | 0.00 | 56 | 1015.5 |
| 20260905163008 | 93 | 27 | 1.7 | 7.8 | 0.00 | 0.00 | 0.00 | 57 | 1015.6 |
| 20260905162504 | 93 | 327 | 5.2 | 8.7 | 0.00 | 0.00 | 0.00 | 55 | 1015.7 |
| 20260905162005 | 93 | 257 | 1.7 | 8.7 | 0.00 | 0.00 | 0.00 | 56 | 1015.7 |
| 20260905161509 | 93 | 330 | 1.7 | 7.8 | 0.00 | 0.00 | 0.00 | 56 | 1015.8 |
| 20260905161006 | 93 | 344 | 3.5 | 5.2 | 0.00 | 0.00 | 0.00 | 55 | 1015.8 |
| 20260905160503 | 93 | 336 | 2.6 | 7.8 | 0.00 | 0.00 | 0.00 | 57 | 1015.9 |
| 20260905160006 | 93 | 339 | 3.5 | 7.8 | 0.00 | 0.00 | 0.00 | 55 | 1015.9 |
| 20260905155503 | 93 | 61 | 2.6 | 6.1 | 0.00 | 0.00 | 0.00 | 56 | 1016.0 |
| 20260905155003 | 93 | 333 | 1.7 | 4.3 | 0.00 | 0.00 | 0.00 | 57 | 1016.0 |
| 20260905154507 | 92 | 329 | 1.7 | 4.3 | 0.00 | 0.00 | 0.00 | 60 | 1015.9 |
| 20260905154004 | 92 | 324 | 2.6 | 3.5 | 0.00 | 0.00 | 0.00 | 59 | 1015.9 |
| 20260905153505 | 91 | 360 | 1.7 | 6.1 | 0.00 | 0.00 | 0.00 | 62 | 1016.1 |
| 20260905153007 | 91 | 114 | 3.5 | 6.1 | 0.00 | 0.00 | 0.00 | 61 | 1016.1 |
| 20260905152506 | 91 | 321 | 0.0 | 3.5 | 0.00 | 0.00 | 0.00 | 64 | 1016.1 |
| 20260905152003 | 91 | 313 | 1.7 | 4.3 | 0.00 | 0.00 | 0.00 | 64 | 1016.1 |
| 20260905151510 | 90 | 70 | 1.7 | 4.3 | 0.00 | 0.00 | 0.00 | 63 | 1016.1 |
| 20260905151004 | 90 | 12 | 2.6 | 5.2 | 0.00 | 0.00 | 0.00 | 64 | 1016.1 |
| 20260905150503 | 89 | 26 | 3.5 | 4.3 | 0.00 | 0.00 | 0.00 | 65 | 1015.9 |
| 20260905150008 | 89 | 29 | 0.9 | 2.6 | 0.00 | 0.00 | 0.00 | 65 | 1016.0 |
| 20260905145505 | 89 | 85 | 1.7 | 2.6 | 0.00 | 0.00 | 0.00 | 67 | 1016.1 |
| 20260905145004 | 89 | 53 | 1.7 | 2.6 | 0.00 | 0.00 | 0.00 | 68 | 1016.1 |
| 20260905144509 | 88 | 105 | 1.7 | 2.6 | 0.00 | 0.00 | 0.00 | 68 | 1016.2 |
| 20260905144004 | 88 | 51 | 1.7 | 2.6 | 0.00 | 0.00 | 0.00 | 69 | 1016.2 |
| 20260905143504 | 88 | 44 | 0.9 | 1.7 | 0.00 | 0.00 | 0.00 | 68 | 1016.3 |
| 20260905143020 | 87 | 38 | 0.0 | 1.7 | 0.00 | 0.00 | 0.00 | 72 | 1016.3 |
| 20260905142504 | 87 | 122 | 0.0 | 1.7 | 0.00 | 0.00 | 0.00 | 72 | 1016.2 |
| 20260905142004 | 86 | 155 | 0.9 | 1.7 | 0.00 | 0.00 | 0.00 | 74 | 1016.3 |
| 20260905141510 | 85 | 117 | 0.9 | 1.7 | 0.00 | 0.00 | 0.00 | 74 | 1016.4 |
| 20260905141003 | 85 | 239 | 0.9 | 1.7 | 0.00 | 0.00 | 0.00 | 76 | 1016.4 |
| 20260905140503 | 85 | 128 | 0.0 | 1.7 | 0.00 | 0.00 | 0.00 | 75 | 1016.5 |
| 20260905140010 | 84 | 179 | 0.0 | 1.7 | 0.00 | 0.00 | 0.00 | 78 | 1016.5 |
| 20260905135506 | 83 | 174 | 0.0 | 1.7 | 0.00 | 0.00 | 0.00 | 82 | 1016.5 |
| 20260905135006 | 82 | 205 | 0.0 | 1.7 | 0.00 | 0.00 | 0.00 | 83 | 1016.6 |
| 20260905134513 | 81 | 193 | 0.9 | 1.7 | 0.00 | 0.00 | 0.00 | 82 | 1016.5 |
| 20260905134004 | 81 | 149 | 0.0 | 1.7 | 0.00 | 0.00 | 0.00 | 85 | 1016.6 |
| 20260905133505 | 80 | 149 | 0.0 | 1.7 | 0.00 | 0.00 | 0.00 | 85 | 1016.5 |
| 20260905133010 | 79 | 149 | 0.0 | 1.7 | 0.00 | 0.00 | 0.00 | 86 | 1016.5 |
| 20260905132505 | 79 | 162 | 0.9 | 1.7 | 0.00 | 0.00 | 0.00 | 87 | 1016.6 |
| 20260905132006 | 78 | 158 | 0.9 | 1.7 | 0.00 | 0.00 | 0.00 | 87 | 1016.5 |
| 20260905131514 | 78 | 155 | 0.9 | 1.7 | 0.00 | 0.00 | 0.00 | 88 | 1016.6 |
| 20260905131008 | 77 | 166 | 0.9 | 1.7 | 0.00 | 0.00 | 0.00 | 89 | 1016.7 |
| 20260905130507 | 77 | 148 | 0.9 | 1.7 | 0.00 | 0.00 | 0.00 | 91 | 1016.7 |
| 20260905130012 | 76 | 167 | 0.9 | 1.7 | 0.00 | 0.00 | 0.00 | 91 | 1016.7 |
| 20260905125507 | 76 | 167 | 0.9 | 1.7 | 0.00 | 0.00 | 0.00 | 92 | 1016.8 |
| 20260905125006 | 75 | 169 | 0.0 | 1.7 | 0.00 | 0.00 | 0.00 | 93 | 1016.7 |
| 20260905124514 | 74 | 169 | 0.0 | 0.0 | 0.00 | 0.00 | 0.00 | 93 | 1016.6 |
| 20260905124006 | 74 | 169 | 0.0 | 1.7 | 0.00 | 0.00 | 0.00 | 94 | 1016.6 |
| 20260905123507 | 73 | 169 | 0.0 | 1.7 | 0.00 | 0.00 | 0.00 | 95 | 1016.6 |
| 20260905123019 | 73 | 169 | 0.0 | 1.7 | 0.00 | 0.00 | 0.00 | 95 | 1016.5 |
| 20260905122510 | 72 | 169 | 0.0 | 1.7 | 0.00 | 0.00 | 0.00 | 95 | 1016.5 |
| 20260905122006 | 72 | 169 | 0.0 | 1.7 | 0.00 | 0.00 | 0.00 | 94 | 1016.4 |
| 20260905121520 | 71 | 38 | 0.0 | 1.7 | 0.00 | 0.00 | 0.00 | 94 | 1016.3 |
| 20260905121007 | 71 | 38 | 0.0 | 1.7 | 0.00 | 0.00 | 0.00 | 94 | 1016.3 |
| 20260905120506 | 71 | 38 | 0.0 | 1.7 | 0.00 | 0.00 | 0.00 | 94 | 1016.2 |
| 20260905120016 | 71 | 38 | 0.0 | 1.7 | 0.00 | 0.00 | 0.00 | 94 | 1016.2 |
| 20260905115508 | 71 | 38 | 0.0 | 0.9 | 0.00 | 0.00 | 0.00 | 94 | 1016.2 |
| 20260905115009 | 71 | 38 | 0.0 | 1.7 | 0.00 | 0.00 | 0.00 | 94 | 1016.2 |
| 20260905114516 | 71 | 38 | 0.0 | 1.7 | 0.00 | 0.00 | 0.00 | 94 | 1016.2 |
| 20260905114007 | 71 | 38 | 0.0 | 0.0 | 0.00 | 0.00 | 0.00 | 94 | 1016.1 |
| 20260905113507 | 71 | 38 | 0.0 | 0.0 | 0.00 | 0.00 | 0.00 | 94 | 1016.0 |
| 20260905113014 | 71 | 38 | 0.0 | 0.0 | 0.00 | 0.00 | 0.00 | 94 | 1015.9 |
| 20260905112506 | 71 | 38 | 0.0 | 0.0 | 0.00 | 0.00 | 0.00 | 1015.8 | |
| 20260905112010 | 71 | 38 | 0.0 | 0.0 | 0.00 | 0.00 | 0.00 | 94 | 1015.7 |
| 20260905111504 | 71 | 38 | 0.0 | 0.0 | 0.00 | 0.00 | 0.00 | 94 | 1015.6 |
| 20260905111003 | 71 | 38 | 0.0 | 0.0 | 0.00 | 0.00 | 0.00 | 94 | 1015.5 |
| 20260905110502 | 71 | 38 | 0.0 | 0.9 | 0.00 | 0.00 | 0.00 | 94 | 1015.5 |
| 20260905110007 | 71 | 38 | 0.0 | 1.7 | 0.00 | 0.00 | 0.00 | 94 | 1015.5 |
| 20260905105511 | 71 | 38 | 0.0 | 1.7 | 0.00 | 0.00 | 0.00 | 94 | 1015.4 |
| 20260905105005 | 71 | 38 | 0.0 | 1.7 | 0.00 | 0.00 | 0.00 | 94 | 1015.4 |
| 20260905104508 | 71 | 38 | 0.0 | 1.7 | 0.00 | 0.00 | 0.00 | 94 | 1015.4 |
| 20260905104003 | 71 | 38 | 0.0 | 1.7 | 0.00 | 0.00 | 0.00 | 94 | 1015.3 |
| 20260905103508 | 71 | 38 | 0.0 | 1.7 | 0.00 | 0.00 | 0.00 | 94 | 1015.2 |
| 20260905103013 | 71 | 38 | 0.0 | 1.7 | 0.00 | 0.00 | 0.00 | 94 | 1015.2 |
| 20260905102508 | 71 | 38 | 0.0 | 1.7 | 0.00 | 0.00 | 0.00 | 1015.1 | |
| 20260905102008 | 71 | 38 | 0.0 | 1.7 | 0.00 | 0.00 | 0.00 | 93 | 1015.1 |
| 20260905101527 | 71 | 38 | 0.0 | 0.0 | 0.00 | 0.00 | 0.00 | 93 | 1015.1 |
| 20260905101013 | 71 | 38 | 0.0 | 0.0 | 0.00 | 0.00 | 0.00 | 93 | 1015.1 |
| 20260905100503 | 71 | 38 | 0.0 | 0.0 | 0.00 | 0.00 | 0.00 | 93 | 1015.1 |
| 20260905100005 | 71 | 38 | 0.0 | 0.0 | 0.00 | 0.00 | 0.00 | 93 | 1015.2 |
| 20260905095504 | 71 | 38 | 0.0 | 1.7 | 0.00 | 0.00 | 0.00 | 93 | 1015.2 |
| 20260905095006 | 71 | 38 | 0.0 | 1.7 | 0.00 | 0.00 | 0.00 | 93 | 1015.2 |
| 20260905094520 | 71 | 38 | 0.0 | 1.7 | 0.00 | 0.00 | 0.00 | 93 | 1015.1 |
| 20260905094006 | 72 | 38 | 0.0 | 1.7 | 0.00 | 0.00 | 0.00 | 93 | 1015.1 |
| 20260905093503 | 72 | 38 | 0.0 | 1.7 | 0.00 | 0.00 | 0.00 | 93 | 1015.1 |
| 20260905093011 | 72 | 38 | 0.0 | 1.7 | 0.00 | 0.00 | 0.00 | 93 | 1015.0 |
| 20260905092507 | 72 | 38 | 0.0 | 1.7 | 0.00 | 0.00 | 0.00 | 93 | 1015.2 |
| 20260905092006 | 72 | 38 | 0.0 | 1.7 | 0.00 | 0.00 | 0.00 | 93 | 1015.1 |
| 20260905091518 | 72 | 38 | 0.0 | 1.7 | 0.00 | 0.00 | 0.00 | 93 | 1015.1 |
| 20260905091007 | 72 | 38 | 0.0 | 1.7 | 0.00 | 0.00 | 0.00 | 93 | 1015.1 |
| 20260905090512 | 72 | 38 | 0.0 | 0.9 | 0.00 | 0.00 | 0.00 | 93 | 1015.0 |
| 20260905090023 | 72 | 38 | 0.0 | 0.0 | 0.00 | 0.00 | 0.00 | 93 | 1015.0 |
| 20260905085504 | 72 | 38 | 0.0 | 0.0 | 0.00 | 0.00 | 0.00 | 93 | 1014.9 |
| 20260905085003 | 72 | 38 | 0.0 | 0.0 | 0.00 | 0.00 | 0.00 | 93 | 1014.9 |
| 20260905084506 | 72 | 38 | 0.0 | 0.0 | 0.00 | 0.00 | 0.00 | 93 | 1014.9 |
| 20260905084004 | 72 | 38 | 0.0 | 1.7 | 0.00 | 0.00 | 0.00 | 93 | 1014.9 |
| 20260905083507 | 72 | 38 | 0.0 | 1.7 | 0.00 | 0.00 | 0.00 | 93 | 1015.0 |
| 20260905083011 | 72 | 38 | 0.0 | 1.7 | 0.00 | 0.00 | 0.00 | 93 | 1015.1 |
| 20260905082506 | 72 | 38 | 0.0 | 1.7 | 0.00 | 0.00 | 0.00 | 93 | 1015.1 |
| 20260905082005 | 72 | 38 | 0.0 | 1.7 | 0.00 | 0.00 | 0.00 | 93 | 1015.1 |
| 20260905081520 | 72 | 38 | 0.0 | 1.7 | 0.00 | 0.00 | 0.00 | 93 | 1015.0 |
| 20260905081011 | 72 | 38 | 0.0 | 1.7 | 0.00 | 0.00 | 0.00 | 93 | 1015.0 |
| 20260905080507 | 72 | 38 | 0.0 | 1.7 | 0.00 | 0.00 | 0.00 | 92 | 1014.8 |
| 20260905080032 | 72 | 38 | 0.0 | 1.7 | 0.00 | 0.00 | 0.00 | 93 | 1014.7 |
| 20260905075511 | 72 | 38 | 0.0 | 1.7 | 0.00 | 0.00 | 0.00 | 93 | 1014.7 |
| 20260905075011 | 72 | 38 | 0.0 | 1.7 | 0.00 | 0.00 | 0.00 | 93 | 1014.7 |
| 20260905074530 | 72 | 38 | 0.9 | 1.7 | 0.00 | 0.00 | 0.00 | 93 | 1014.7 |
| 20260905074004 | 72 | 360 | 0.9 | 0.9 | 0.00 | 0.00 | 0.00 | 93 | 1014.8 |
| 20260905073503 | 72 | 360 | 0.0 | 0.9 | 0.00 | 0.00 | 0.00 | 92 | 1014.8 |
| 20260905073009 | 72 | 360 | 0.0 | 0.0 | 0.00 | 0.00 | 0.00 | 92 | 1014.7 |
| 20260905072514 | 72 | 360 | 0.0 | 1.7 | 0.00 | 0.00 | 0.00 | 92 | 1014.7 |
| 20260905072004 | 72 | 360 | 0.0 | 1.7 | 0.00 | 0.00 | 0.00 | 92 | 1014.7 |
| 20260905071529 | 72 | 360 | 0.0 | 0.9 | 0.00 | 0.00 | 0.00 | 92 | 1014.7 |
| 20260905071006 | 73 | 360 | 0.0 | 1.7 | 0.00 | 0.00 | 0.00 | 92 | 1014.7 |
| 20260905070511 | 73 | 360 | 0.9 | 1.7 | 0.00 | 0.00 | 0.00 | 92 | 1014.7 |